createdAt,value
2023-05-03T00:07:30.160Z,3.04
2023-05-03T00:18:25.854Z,3.03
2023-05-03T00:29:17.474Z,3.03
2023-05-03T00:40:16.607Z,3.03
2023-05-03T00:51:08.857Z,3.03
2023-05-03T01:02:03.667Z,3.03
2023-05-03T01:13:03.043Z,3.02
2023-05-03T01:23:40.658Z,3.01
2023-05-03T01:34:36.963Z,3.02
2023-05-03T01:45:34.722Z,3.01
2023-05-03T01:56:13.773Z,3.00
2023-05-03T02:06:55.877Z,2.99
2023-05-03T02:17:56.602Z,3.00
2023-05-03T02:28:50.516Z,2.99
2023-05-03T02:39:46.017Z,2.99
2023-05-03T02:50:42.556Z,2.99
2023-05-03T03:01:39.631Z,2.99
2023-05-03T03:12:36.341Z,2.99
2023-05-03T03:23:35.330Z,2.99
2023-05-03T03:34:30.328Z,2.99
2023-05-03T03:45:28.954Z,2.98
2023-05-03T03:56:26.316Z,2.98
2023-05-03T04:07:45.434Z,2.98
2023-05-03T04:18:39.566Z,2.98
2023-05-03T04:29:20.449Z,2.98
2023-05-03T04:40:14.499Z,2.99
2023-05-03T04:51:12.191Z,3.00
2023-05-03T05:02:00.614Z,3.02
2023-05-03T05:12:39.154Z,3.02
2023-05-03T05:23:32.932Z,3.04
2023-05-03T05:34:26.184Z,3.06
2023-05-03T05:45:03.243Z,3.09
2023-05-03T05:55:58.666Z,3.11
2023-05-03T06:06:54.826Z,3.14
2023-05-03T06:17:49.087Z,3.18
2023-05-03T06:28:28.558Z,3.22
2023-05-03T06:39:22.723Z,3.25
2023-05-03T06:50:13.083Z,3.29
2023-05-03T07:01:01.207Z,3.33
2023-05-03T07:11:52.840Z,3.36
2023-05-03T07:22:43.243Z,3.30
2023-05-03T07:33:37.545Z,3.29
2023-05-03T07:44:35.102Z,3.30
2023-05-03T07:55:29.476Z,3.30
2023-05-03T08:06:20.958Z,3.30
2023-05-03T08:17:11.964Z,3.31
2023-05-03T08:27:57.709Z,3.32
2023-05-03T08:38:50.212Z,3.32
2023-05-03T08:49:46.453Z,3.31
2023-05-03T09:00:41.408Z,3.32
2023-05-03T09:11:34.304Z,3.33
2023-05-03T09:22:25.085Z,3.33
2023-05-03T09:33:12.841Z,3.34
2023-05-03T09:44:08.873Z,3.34
2023-05-03T09:55:04.502Z,3.33
2023-05-03T10:05:58.782Z,3.33
2023-05-03T10:16:31.149Z,3.33
2023-05-03T10:27:21.445Z,3.34
2023-05-03T10:37:59.193Z,3.33
2023-05-03T10:48:44.418Z,3.34
2023-05-03T10:59:43.023Z,3.33
2023-05-03T11:10:32.853Z,3.33
2023-05-03T11:21:23.544Z,3.37
2023-05-03T11:32:17.956Z,3.37
2023-05-03T11:43:10.828Z,3.34
2023-05-03T11:54:12.912Z,3.34
2023-05-03T12:05:01.495Z,3.34
2023-05-03T12:16:10.069Z,3.37
2023-05-03T12:26:58.147Z,3.37
2023-05-03T12:37:33.422Z,3.34
2023-05-03T12:48:29.139Z,3.36
2023-05-03T12:59:40.361Z,3.37
2023-05-03T13:10:26.459Z,3.36
2023-05-03T13:21:25.727Z,3.36
2023-05-03T13:32:24.513Z,3.37
2023-05-03T13:43:24.277Z,3.36
2023-05-03T13:54:11.528Z,3.35
2023-05-03T14:05:05.822Z,3.34
2023-05-03T14:15:38.517Z,3.34
2023-05-03T14:26:33.992Z,3.34
2023-05-03T14:37:22.013Z,3.34
2023-05-03T14:47:55.424Z,3.34
2023-05-03T14:58:49.262Z,3.36
2023-05-03T15:09:40.343Z,3.38
2023-05-03T15:20:27.625Z,3.37
2023-05-03T15:31:21.026Z,3.34
2023-05-03T15:42:21.041Z,3.34
2023-05-03T15:53:21.517Z,3.33
2023-05-03T16:04:11.604Z,3.35
2023-05-03T16:14:59.821Z,3.36
2023-05-03T16:25:40.866Z,3.36
2023-05-03T16:36:20.905Z,3.36
2023-05-03T16:47:06.827Z,3.34
2023-05-03T16:57:52.455Z,3.33
2023-05-03T17:08:48.818Z,3.32
2023-05-03T17:19:45.352Z,3.29
2023-05-03T17:30:40.957Z,3.31
2023-05-03T17:41:42.046Z,3.31
2023-05-03T17:52:40.013Z,3.30
2023-05-03T18:03:35.368Z,3.28
2023-05-03T18:14:30.999Z,3.27
2023-05-03T18:25:21.930Z,3.26
2023-05-03T18:36:20.113Z,3.25
2023-05-03T18:47:17.083Z,3.24
2023-05-03T18:58:11.148Z,3.23
2023-05-03T19:09:05.707Z,3.22
2023-05-03T19:19:59.382Z,3.22
2023-05-03T19:30:57.078Z,3.21
2023-05-03T19:41:53.950Z,3.20
2023-05-03T19:52:49.863Z,3.20
2023-05-03T20:03:46.539Z,3.19
2023-05-03T20:24:56.335Z,3.18
2023-05-03T20:35:47.106Z,3.17
2023-05-03T20:46:22.792Z,3.15
2023-05-03T20:57:03.114Z,3.15
2023-05-03T21:07:57.080Z,3.14
2023-05-03T21:18:46.769Z,3.14
2023-05-03T21:29:35.582Z,3.14
2023-05-03T21:40:32.470Z,3.13
2023-05-03T21:51:24.571Z,3.13
2023-05-03T22:02:01.107Z,3.11
2023-05-03T22:12:48.596Z,3.11
2023-05-03T22:23:37.894Z,3.10
2023-05-03T22:34:34.707Z,3.10
2023-05-03T22:45:22.559Z,3.09
2023-05-03T22:56:00.196Z,3.08
2023-05-03T23:06:53.060Z,3.08
2023-05-03T23:17:46.449Z,3.08
2023-05-03T23:28:35.222Z,3.07
2023-05-03T23:39:25.757Z,3.07
2023-05-03T23:50:19.192Z,3.06
